Map

Track Data

SID SEASON NUMBER BASIN SUBBASIN NAME ISO_TIME NATURE LAT LON WMO_WIND WMO_PRES WMO_AGENCY TRACK_TYPE DIST2LAND LANDFALL IFLAG USA_AGENCY USA_ATCF_ID USA_LAT USA_LON USA_RECORD USA_STATUS USA_WIND USA_PRES USA_SSHS USA_R34_NE USA_R34_SE USA_R34_SW USA_R34_NW USA_R50_NE USA_R50_SE USA_R50_SW USA_R50_NW USA_R64_NE USA_R64_SE USA_R64_SW USA_R64_NW USA_POCI USA_ROCI USA_RMW USA_EYE TOKYO_LAT TOKYO_LON TOKYO_GRADE TOKYO_WIND TOKYO_PRES TOKYO_R50_DIR TOKYO_R50_LONG TOKYO_R50_SHORT TOKYO_R30_DIR TOKYO_R30_LONG TOKYO_R30_SHORT TOKYO_LAND CMA_LAT CMA_LON CMA_CAT CMA_WIND CMA_PRES HKO_LAT HKO_LON HKO_CAT HKO_WIND HKO_PRES NEWDELHI_LAT NEWDELHI_LON NEWDELHI_GRADE NEWDELHI_WIND NEWDELHI_PRES NEWDELHI_CI NEWDELHI_DP NEWDELHI_POCI REUNION_LAT REUNION_LON REUNION_TYPE REUNION_WIND REUNION_PRES REUNION_TNUM REUNION_CI REUNION_RMW REUNION_R34_NE REUNION_R34_SE REUNION_R34_SW REUNION_R34_NW REUNION_R50_NE REUNION_R50_SE REUNION_R50_SW REUNION_R50_NW REUNION_R64_NE REUNION_R64_SE REUNION_R64_SW REUNION_R64_NW BOM_LAT BOM_LON BOM_TYPE BOM_WIND BOM_PRES BOM_TNUM BOM_CI BOM_RMW BOM_R34_NE BOM_R34_SE BOM_R34_SW BOM_R34_NW BOM_R50_NE BOM_R50_SE BOM_R50_SW BOM_R50_NW BOM_R64_NE BOM_R64_SE BOM_R64_SW BOM_R64_NW BOM_ROCI BOM_POCI BOM_EYE BOM_POS_METHOD BOM_PRES_METHOD NADI_LAT NADI_LON NADI_CAT NADI_WIND NADI_PRES WELLINGTON_LAT WELLINGTON_LON WELLINGTON_WIND WELLINGTON_PRES DS824_LAT DS824_LON DS824_STAGE DS824_WIND DS824_PRES TD9636_LAT TD9636_LON TD9636_STAGE TD9636_WIND TD9636_PRES TD9635_LAT TD9635_LON TD9635_WIND TD9635_PRES TD9635_ROCI NEUMANN_LAT NEUMANN_LON NEUMANN_CLASS NEUMANN_WIND NEUMANN_PRES MLC_LAT MLC_LON MLC_CLASS MLC_WIND MLC_PRES USA_GUST BOM_GUST BOM_GUST_PER REUNION_GUST REUNION_GUST_PER USA_SEAHGT USA_SEARAD_NE USA_SEARAD_SE USA_SEARAD_SW USA_SEARAD_NW STORM_SPEED STORM_DIR
1934238N27271 1934 45 NA GM NOT_NAMED 1934-08-26 06:00:00 TS 27.4000 -89.4000 35 hurdat_atl main 181 174 O_____________ hurdat_atl AL051934 27.4000 -89.4000 TS 35 0 9 289
1934238N27271 1934 45 NA GM NOT_NAMED 1934-08-26 09:00:00 TS 27.5503 -89.8973 main 168 156 P_____________ AL051934 27.5503 -89.8973 TS 37 0 9 289
1934238N27271 1934 45 NA GM NOT_NAMED 1934-08-26 12:00:00 TS 27.7000 -90.4000 40 hurdat_atl main 157 145 O_____________ hurdat_atl AL051934 27.7000 -90.4000 TS 40 0 9 289
1934238N27271 1934 45 NA GM NOT_NAMED 1934-08-26 15:00:00 TS 27.8499 -90.9076 main 145 126 P_____________ AL051934 27.8499 -90.9076 TS 42 0 9 289
1934238N27271 1934 45 NA GM NOT_NAMED 1934-08-26 18:00:00 TS 28.0000 -91.4000 45 hurdat_atl main 132 130 O_____________ hurdat_atl AL051934 28.0000 -91.4000 TS 45 0 9 289
1934238N27271 1934 45 NA GM NOT_NAMED 1934-08-26 21:00:00 TS 28.1424 -91.8727 main 145 133 P_____________ AL051934 28.1424 -91.8727 TS 47 0 8 291
1934238N27271 1934 45 NA GM NOT_NAMED 1934-08-27 00:00:00 TS 28.3000 -92.3000 50 998 hurdat_atl main 133 115 O_____________ hurdat_atl AL051934 28.3000 -92.3000 TS 50 998 0 8 296
1934238N27271 1934 45 NA GM NOT_NAMED 1934-08-27 03:00:00 TS 28.4848 -92.6652 main 118 104 P_____________ AL051934 28.4848 -92.6652 TS 55 0 7 303
1934238N27271 1934 45 NA GM NOT_NAMED 1934-08-27 06:00:00 TS 28.7000 -93.0000 60 hurdat_atl main 107 87 O_____________ hurdat_atl AL051934 28.7000 -93.0000 TS 60 0 8 310
1934238N27271 1934 45 NA GM NOT_NAMED 1934-08-27 09:00:00 TS 28.9799 -93.3497 main 87 56 P_____________ AL051934 28.9799 -93.3497 TS 65 1 8 309
1934238N27271 1934 45 NA GM NOT_NAMED 1934-08-27 12:00:00 TS 29.2000 -93.7000 70 hurdat_atl main 56 44 O_____________ hurdat_atl AL051934 29.2000 -93.7000 HU 70 1 7 294
1934238N27271 1934 45 NA GM NOT_NAMED 1934-08-27 15:00:00 TS 29.2525 -94.0653 main 44 38 P_____________ AL051934 29.2525 -94.0653 HU 70 1 6 270
1934238N27271 1934 45 NA GM NOT_NAMED 1934-08-27 18:00:00 TS 29.2000 -94.4000 70 hurdat_atl main 38 29 O_____________ hurdat_atl AL051934 29.2000 -94.4000 HU 70 1 5 256
1934238N27271 1934 45 NA GM NOT_NAMED 1934-08-27 21:00:00 TS 29.1224 -94.6725 main 29 24 P_____________ AL051934 29.1224 -94.6725 HU 70 1 5 245
1934238N27271 1934 45 NA GM NOT_NAMED 1934-08-28 00:00:00 TS 29.0000 -94.9000 70 hurdat_atl main 29 14 O_____________ hurdat_atl AL051934 29.0000 -94.9000 HU 70 1 5 236
1934238N27271 1934 45 NA GM NOT_NAMED 1934-08-28 03:00:00 TS 28.8575 -95.1301 main 14 14 P_____________ AL051934 28.8575 -95.1301 HU 70 1 5 229
1934238N27271 1934 45 NA GM NOT_NAMED 1934-08-28 06:00:00 TS 28.7000 -95.3000 70 hurdat_atl main 24 24 O_____________ hurdat_atl AL051934 28.7000 -95.3000 HU 70 1 4 215
1934238N27271 1934 45 NA GM NOT_NAMED 1934-08-28 09:00:00 TS 28.5499 -95.3724 main 44 44 P_____________ AL051934 28.5499 -95.3724 HU 70 1 3 196
1934238N27271 1934 45 NA GM NOT_NAMED 1934-08-28 12:00:00 TS 28.4000 -95.4000 70 hurdat_atl main 53 53 O_____________ hurdat_atl AL051934 28.4000 -95.4000 HU 70 1 3 192
1934238N27271 1934 45 NA GM NOT_NAMED 1934-08-28 15:00:00 TS 28.2500 -95.4500 main 63 66 P_____________ AL051934 28.2500 -95.4500 HU 70 1 3 196
1934238N27271 1934 45 NA GM NOT_NAMED 1934-08-28 18:00:00 TS 28.1000 -95.5000 70 hurdat_atl main 74 74 O_____________ hurdat_atl AL051934 28.1000 -95.5000 HU 70 1 3 197
1934238N27271 1934 45 NA GM NOT_NAMED 1934-08-28 21:00:00 TS 27.9500 -95.5575 main 77 77 P_____________ AL051934 27.9500 -95.5575 HU 70 1 3 196
1934238N27271 1934 45 NA GM NOT_NAMED 1934-08-29 00:00:00 TS 27.8000 -95.6000 70 hurdat_atl main 97 97 O_____________ hurdat_atl AL051934 27.8000 -95.6000 HU 70 1 3 185
1934238N27271 1934 45 NA GM NOT_NAMED 1934-08-29 03:00:00 TS 27.6500 -95.6075 main 106 116 P_____________ AL051934 27.6500 -95.6075 HU 67 1 3 0
1934238N27271 1934 45 NA GM NOT_NAMED 1934-08-29 06:00:00 TS 27.5000 -95.6000 65 hurdat_atl main 126 126 O_____________ hurdat_atl AL051934 27.5000 -95.6000 HU 65 1 3 0
1934238N27271 1934 45 NA GM NOT_NAMED 1934-08-29 09:00:00 TS 27.3500 -95.6075 main 136 145 P_____________ AL051934 27.3500 -95.6075 HU 62 0 3 0
1934238N27271 1934 45 NA GM NOT_NAMED 1934-08-29 12:00:00 TS 27.2000 -95.6000 60 hurdat_atl main 155 155 O_____________ hurdat_atl AL051934 27.2000 -95.6000 TS 60 0 3 168
1934238N27271 1934 45 NA GM NOT_NAMED 1934-08-29 15:00:00 TS 27.0575 -95.5500 main 169 169 P_____________ AL051934 27.0575 -95.5500 TS 57 0 3 164
1934238N27271 1934 45 NA GM NOT_NAMED 1934-08-29 18:00:00 TS 26.9000 -95.5000 55 hurdat_atl main 188 177 O_____________ hurdat_atl AL051934 26.9000 -95.5000 TS 55 0 3 171
1934238N27271 1934 45 NA GM NOT_NAMED 1934-08-29 21:00:00 TS 26.7150 -95.4925 main 177 168 P_____________ AL051934 26.7150 -95.4925 TS 55 0 4 0
1934238N27271 1934 45 NA GM NOT_NAMED 1934-08-30 00:00:00 TS 26.5000 -95.5000 55 hurdat_atl main 168 163 O_____________ hurdat_atl AL051934 26.5000 -95.5000 TS 55 0 5 183
1934238N27271 1934 45 NA GM NOT_NAMED 1934-08-30 03:00:00 TS 26.2575 -95.5000 main 163 159 P_____________ AL051934 26.2575 -95.5000 TS 52 0 5 178
1934238N27271 1934 45 NA GM NOT_NAMED 1934-08-30 06:00:00 TS 26.0000 -95.5000 50 hurdat_atl main 159 159 O_____________ hurdat_atl AL051934 26.0000 -95.5000 TS 50 0 5 177
1934238N27271 1934 45 NA GM NOT_NAMED 1934-08-30 09:00:00 TS 25.7500 -95.5000 main 161 163 P_____________ AL051934 25.7500 -95.5000 TS 50 0 5 178
1934238N27271 1934 45 NA GM NOT_NAMED 1934-08-30 12:00:00 TS 25.5000 -95.5000 50 hurdat_atl main 169 169 O_____________ hurdat_atl AL051934 25.5000 -95.5000 TS 50 0 5 178
1934238N27271 1934 45 NA GM NOT_NAMED 1934-08-30 15:00:00 TS 25.2500 -95.4925 main 173 176 P_____________ AL051934 25.2500 -95.4925 TS 47 0 5 178
1934238N27271 1934 45 NA GM NOT_NAMED 1934-08-30 18:00:00 TS 25.0000 -95.5000 45 hurdat_atl main 183 183 O_____________ hurdat_atl AL051934 25.0000 -95.5000 TS 45 0 5 185
1934238N27271 1934 45 NA GM NOT_NAMED 1934-08-30 21:00:00 TS 24.7500 -95.5350 main 197 188 P_____________ AL051934 24.7500 -95.5350 TS 45 0 5 190
1934238N27271 1934 45 NA GM NOT_NAMED 1934-08-31 00:00:00 TS 24.5000 -95.6000 45 hurdat_atl main 197 197 O_____________ hurdat_atl AL051934 24.5000 -95.6000 TS 45 0 5 195
1934238N27271 1934 45 NA GM NOT_NAMED 1934-08-31 03:00:00 TS 24.2500 -95.6774 main 202 197 P_____________ AL051934 24.2500 -95.6774 TS 45 0 5 200
1934238N27271 1934 45 NA GM NOT_NAMED 1934-08-31 06:00:00 TS 24.0000 -95.8000 45 hurdat_atl main 200 183 O_____________ hurdat_atl AL051934 24.0000 -95.8000 TS 45 0 6 209
1934238N27271 1934 45 NA GM NOT_NAMED 1934-08-31 09:00:00 TS 23.7500 -95.9775 main 183 163 P_____________ AL051934 23.7500 -95.9775 TS 45 0 6 216
1934238N27271 1934 45 NA GM NOT_NAMED 1934-08-31 12:00:00 TS 23.5000 -96.2000 45 hurdat_atl main 163 142 O_____________ hurdat_atl AL051934 23.5000 -96.2000 TS 45 0 7 220
1934238N27271 1934 45 NA GM NOT_NAMED 1934-08-31 15:00:00 TS 23.2500 -96.4349 main 143 112 P_____________ AL051934 23.2500 -96.4349 TS 42 0 7 223
1934238N27271 1934 45 NA GM NOT_NAMED 1934-08-31 18:00:00 TS 23.0000 -96.7000 40 hurdat_atl main 112 81 O_____________ hurdat_atl AL051934 23.0000 -96.7000 TS 40 0 7 225
1934238N27271 1934 45 NA GM NOT_NAMED 1934-08-31 21:00:00 TS 22.7424 -96.9850 main 82 51 P_____________ AL051934 22.7424 -96.9850 TS 40 0 7 228
1934238N27271 1934 45 NA GM NOT_NAMED 1934-09-01 00:00:00 TS 22.5000 -97.3000 40 hurdat_atl main 51 20 O_____________ hurdat_atl AL051934 22.5000 -97.3000 TS 40 0 8 234
1934238N27271 1934 45 NA GM NOT_NAMED 1934-09-01 03:00:00 TS 22.2925 -97.6499 main 20 0 P_____________ AL051934 22.2925 -97.6499 TS 37 0 8 238
1934238N27271 1934 45 NA NA NOT_NAMED 1934-09-01 06:00:00 TS 22.1000 -98.0000 35 hurdat_atl main 0 0 O_____________ hurdat_atl AL051934 22.1000 -98.0000 TS 35 0 7 237
1934238N27271 1934 45 NA NA NOT_NAMED 1934-09-01 09:00:00 TS 21.8924 -98.3074 main 0 0 P_____________ AL051934 21.8924 -98.3074 TS 32 -1 7 234
1934238N27271 1934 45 NA NA NOT_NAMED 1934-09-01 12:00:00 TS 21.7000 -98.6000 30 hurdat_atl main 0 0 O_____________ hurdat_atl AL051934 21.7000 -98.6000 TD 30 -1 7 237
1934238N27271 1934 45 NA NA NOT_NAMED 1934-09-01 15:00:00 TS 21.5401 -98.8976 main 0 0 P_____________ AL051934 21.5401 -98.8976 TD 25 -1 6 242
1934238N27271 1934 45 NA NA NOT_NAMED 1934-09-01 18:00:00 TS 21.4000 -99.2000 20 hurdat_atl main 0 O_____________ hurdat_atl AL051934 21.4000 -99.2000 TD 20 -1 6 244

About IBTrACS Database

This database is a web-friendly format of International Best Track Archive for Climate Stewardship (IBTrACS), a global best track data archive curated by NOAA dating back to 1842.

Updated: 2021-11-26